Time;durP1;ratioP1;P1;durP2;ratioP2;P2;SDS_P1;SDS_P2;PMS_P1;PMS_P2;Temp;Humidity;BMP_temperature;BMP_pressure;BME280_temperature;BME280_humidity;BME280_pressure;Samples;Min_cycle;Max_cycle;Signal;HPM_P1;HPM_P2
2024/01/01 00:00:48;;;;;;;19.17;9.67;;;9.90;90.60;;;11.22;59.84;99754.66;3081839;46;21017;-66
2024/01/01 00:03:18;;;;;;;11.03;7.50;;;9.90;90.60;;;11.24;59.64;99758.72;3081129;46;20433;-66
2024/01/01 00:05:47;;;;;;;12.23;7.03;;;9.90;90.60;;;11.29;59.55;99760.75;3081696;46;20431;-65
2024/01/01 00:08:16;;;;;;;12.57;8.10;;;10.00;90.10;;;11.34;59.54;99763.56;3081157;46;20533;-64
2024/01/01 00:10:45;;;;;;;17.10;8.37;;;10.00;90.10;;;11.28;59.70;99769.66;3081559;46;20530;-66
2024/01/01 00:13:13;;;;;;;13.80;7.03;;;10.00;90.10;;;11.41;59.46;99759.13;3081727;46;21217;-65
2024/01/01 00:15:41;;;;;;;12.67;7.27;;;10.10;90.10;;;11.52;59.33;99753.22;3081593;46;20427;-65
2024/01/01 00:18:13;;;;;;;11.23;5.50;;;10.10;90.10;;;11.58;59.07;99755.03;3081183;46;20956;-65
2024/01/01 00:20:41;;;;;;;7.50;5.00;;;10.10;90.10;;;11.60;58.96;99766.16;3081471;46;20525;-66
2024/01/01 00:23:10;;;;;;;7.93;4.97;;;10.20;90.10;;;11.66;58.94;99756.63;3081560;46;21082;-66
2024/01/01 00:25:38;;;;;;;7.73;4.60;;;10.10;90.00;;;11.65;59.06;99761.09;3081345;46;20439;-66
2024/01/01 00:28:07;;;;;;;9.77;5.03;;;10.20;90.00;;;11.65;58.98;99766.38;3080768;46;20441;-65
2024/01/01 00:30:36;;;;;;;10.03;4.97;;;10.30;90.10;;;11.72;58.94;99756.66;3081562;46;21074;-64
2024/01/01 00:33:04;;;;;;;8.37;4.47;;;10.30;90.10;;;11.76;58.86;99752.59;3081463;46;20456;-66
2024/01/01 00:35:34;;;;;;;7.47;4.10;;;10.30;90.10;;;11.80;58.66;99759.06;3081357;46;20427;-66
2024/01/01 00:38:02;;;;;;;8.43;3.63;;;10.30;90.00;;;11.73;58.80;99760.91;3080826;46;20497;-65
2024/01/01 00:40:31;;;;;;;7.33;3.80;;;10.30;89.90;;;11.72;58.89;99758.50;3081214;46;20427;-65
2024/01/01 00:43:00;;;;;;;6.90;3.60;;;10.40;90.00;;;11.69;58.98;99761.53;3081865;46;20509;-66
2024/01/01 00:45:28;;;;;;;5.83;3.30;;;10.30;89.80;;;11.75;59.08;99760.69;3080595;46;20438;-66
2024/01/01 00:48:09;;;;;;;6.93;3.43;;;10.40;89.90;;;11.73;58.91;99768.81;3079928;46;21017;-66
2024/01/01 00:50:38;;;;;;;8.70;3.40;;;10.40;89.90;;;11.70;59.01;99769.22;3081152;46;20428;-64
2024/01/01 00:53:06;;;;;;;9.23;4.03;;;10.40;89.90;;;11.67;59.17;99764.34;3081367;46;20553;-64
2024/01/01 00:55:35;;;;;;;9.20;4.00;;;10.40;89.90;;;11.75;59.05;99773.88;3081035;46;20499;-63
2024/01/01 00:58:06;;;;;;;7.20;3.20;;;10.40;89.90;;;11.76;59.02;99767.59;3080847;46;20615;-65
2024/01/01 01:00:35;;;;;;;4.77;3.47;;;10.40;90.00;;;11.70;59.22;99773.69;3081417;46;20456;-66
2024/01/01 01:03:04;;;;;;;7.87;3.90;;;10.40;90.00;;;11.75;59.14;99776.53;3081333;46;21094;-62
2024/01/01 01:05:32;;;;;;;6.50;3.50;;;10.40;90.00;;;11.73;59.16;99771.47;3081358;46;20930;-65
2024/01/01 01:08:01;;;;;;;8.30;4.30;;;10.40;90.00;;;11.73;59.06;99779.38;3080493;46;20533;-66
2024/01/01 01:10:30;;;;;;;7.53;4.70;;;10.40;90.10;;;11.67;59.45;99769.59;3081016;46;20496;-65
2024/01/01 01:12:58;;;;;;;6.90;4.20;;;10.40;90.10;;;11.69;59.44;99770.25;3080919;46;20428;-65
2024/01/01 01:15:27;;;;;;;7.83;4.80;;;10.40;90.10;;;11.71;59.29;99780.59;3081264;46;20459;-66
2024/01/01 01:17:56;;;;;;;8.57;4.57;;;10.40;90.10;;;11.71;59.41;99776.13;3080686;46;20511;-65
2024/01/01 01:20:24;;;;;;;8.87;4.67;;;10.30;90.10;;;11.66;59.63;99775.91;3080803;46;21054;-64
2024/01/01 01:22:52;;;;;;;9.03;5.33;;;10.30;90.20;;;11.67;59.55;99782.78;3081349;46;20460;-65
2024/01/01 01:25:21;;;;;;;10.60;6.90;;;10.30;90.20;;;11.67;59.99;99777.50;3081081;46;20432;-66
2024/01/01 01:27:49;;;;;;;9.33;6.07;;;10.30;90.30;;;11.63;59.70;99776.31;3080399;46;21091;-64
2024/01/01 01:30:18;;;;;;;9.60;5.70;;;10.30;90.30;;;11.64;59.80;99783.22;3080900;46;20447;-65
2024/01/01 01:32:46;;;;;;;11.23;6.73;;;10.30;90.40;;;11.63;59.96;99783.41;3080757;46;20441;-66
2024/01/01 01:35:15;;;;;;;11.40;6.90;;;10.30;90.40;;;11.59;60.01;99783.00;3080684;46;20438;-65
2024/01/01 01:37:44;;;;;;;11.40;7.10;;;10.30;90.40;;;11.58;60.18;99791.91;3080314;46;20443;-65
2024/01/01 01:40:12;;;;;;;9.40;6.33;;;10.30;90.50;;;11.49;60.33;99795.78;3079803;46;20567;-65
2024/01/01 01:42:46;;;;;;;9.70;6.63;;;10.20;90.50;;;11.51;60.35;99797.19;3080664;46;20470;-65
2024/01/01 01:45:14;;;;;;;14.07;6.40;;;10.30;90.60;;;11.53;60.46;99792.53;3081008;46;21036;-66
2024/01/01 01:47:44;;;;;;;10.10;5.83;;;10.30;90.60;;;11.49;60.62;99793.16;3080061;46;20495;-66
2024/01/01 01:50:14;;;;;;;10.23;5.60;;;10.20;90.60;;;11.50;60.56;99792.16;3079777;46;20600;-64
2024/01/01 01:52:44;;;;;;;16.27;11.30;;;10.30;90.60;;;11.59;60.46;99788.28;3080465;46;20988;-65
2024/01/01 01:55:14;;;;;;;8.03;5.77;;;10.30;90.60;;;11.68;60.18;99794.16;3080769;46;20979;-66
2024/01/01 01:57:43;;;;;;;9.73;6.43;;;10.30;90.60;;;11.66;60.21;99794.34;3082353;46;20492;-66
2024/01/01 02:00:13;;;;;;;9.40;5.73;;;10.30;90.60;;;11.70;60.01;99794.78;3083262;46;20427;-66
2024/01/01 02:02:43;;;;;;;8.33;6.03;;;10.30;90.60;;;11.67;59.95;99793.31;3083029;46;20499;-65
2024/01/01 02:05:11;;;;;;;8.30;5.63;;;10.30;90.60;;;11.62;60.27;99793.16;3082786;46;21034;-66
2024/01/01 02:07:41;;;;;;;8.33;5.23;;;10.30;90.60;;;11.62;60.15;99798.44;3082404;46;20465;-66
2024/01/01 02:10:09;;;;;;;9.23;5.60;;;10.30;90.60;;;11.69;60.03;99788.72;3082886;46;20451;-66
2024/01/01 02:12:38;;;;;;;9.00;4.73;;;10.30;90.60;;;11.74;59.99;99781.00;3082936;46;20495;-66
2024/01/01 02:15:07;;;;;;;10.07;5.37;;;10.30;90.60;;;11.73;59.99;99779.38;3083057;46;20464;-62
2024/01/01 02:17:35;;;;;;;7.57;5.13;;;10.30;90.60;;;11.65;60.04;99782.19;3082262;46;21201;-65
2024/01/01 02:20:05;;;;;;;10.30;5.80;;;10.30;90.50;;;11.69;60.26;99780.81;3082891;46;20994;-66
2024/01/01 02:22:45;;;;;;;14.53;5.27;;;10.30;90.50;;;11.71;59.85;99781.41;3082830;46;20440;-65
2024/01/01 02:25:16;;;;;;;8.33;4.50;;;10.40;90.50;;;11.73;59.94;99782.00;3082896;46;20486;-66
2024/01/01 02:27:44;;;;;;;9.13;5.17;;;10.40;90.50;;;11.75;59.95;99787.88;3082002;46;20492;-66
2024/01/01 02:30:13;;;;;;;9.83;5.10;;;10.30;90.50;;;11.66;59.92;99773.28;3083078;46;20427;-65
2024/01/01 02:32:41;;;;;;;9.10;4.70;;;10.40;90.50;;;11.67;59.74;99772.25;3082716;46;21067;-66
2024/01/01 02:35:10;;;;;;;8.30;4.97;;;10.40;90.40;;;11.68;59.89;99770.44;3082817;46;20513;-66
2024/01/01 02:37:38;;;;;;;9.43;4.60;;;10.40;90.40;;;11.63;59.98;99767.59;3082057;46;21065;-65
2024/01/01 02:40:08;;;;;;;11.50;4.77;;;10.40;90.30;;;11.65;59.70;99766.38;3082312;46;21033;-64
2024/01/01 02:42:36;;;;;;;9.73;4.47;;;10.30;90.30;;;11.73;59.79;99763.56;3082361;46;20535;-65
2024/01/01 02:45:07;;;;;;;11.80;4.60;;;10.40;90.40;;;11.75;59.62;99769.44;3082591;46;20456;-65
2024/01/01 02:47:37;;;;;;;12.10;5.30;;;10.40;90.30;;;11.75;59.53;99769.44;3082332;46;21048;-66
2024/01/01 02:50:06;;;;;;;6.97;4.97;;;10.40;90.30;;;11.76;59.61;99773.69;3082887;46;20524;-64
2024/01/01 02:52:35;;;;;;;13.97;5.70;;;10.40;90.30;;;11.77;59.47;99764.75;3082450;46;20428;-65
2024/01/01 02:55:03;;;;;;;8.73;5.03;;;10.40;90.20;;;11.79;59.57;99768.00;3082919;46;20509;-65
2024/01/01 02:57:32;;;;;;;9.83;5.57;;;10.40;90.20;;;11.73;59.44;99760.91;3081803;46;20443;-66
2024/01/01 03:00:00;;;;;;;9.13;6.40;;;10.40;90.20;;;11.76;59.42;99765.78;3082673;46;20532;-66
2024/01/01 03:02:29;;;;;;;15.13;7.07;;;10.40;90.20;;;11.80;59.30;99768.81;3082709;46;20448;-62
2024/01/01 03:04:57;;;;;;;12.67;7.37;;;10.40;90.20;;;11.84;59.11;99762.91;3082295;46;20473;-65
2024/01/01 03:07:26;;;;;;;9.00;6.83;;;10.40;90.20;;;11.80;59.07;99769.63;3081361;46;20471;-66
2024/01/01 03:09:54;;;;;;;17.97;7.70;;;10.40;90.20;;;11.77;59.30;99769.22;3082188;46;20460;-66
2024/01/01 03:12:22;;;;;;;14.13;8.67;;;10.40;90.20;;;11.71;59.35;99765.59;3082250;46;20431;-64
2024/01/01 03:14:51;;;;;;;14.23;8.67;;;10.40;90.10;;;11.72;59.41;99772.47;3082256;46;20490;-64
2024/01/01 03:17:19;;;;;;;16.37;9.73;;;10.40;90.20;;;11.67;59.42;99764.34;3081947;46;20440;-66
2024/01/01 03:19:47;;;;;;;19.00;10.90;;;10.40;90.10;;;11.67;59.17;99772.25;3082219;46;21091;-63
2024/01/01 03:22:16;;;;;;;15.77;10.77;;;10.40;90.10;;;11.70;59.45;99768.41;3082283;46;20503;-66
2024/01/01 03:24:44;;;;;;;18.03;10.37;;;10.40;90.10;;;11.73;59.29;99765.38;3082430;46;21097;-65
2024/01/01 03:27:12;;;;;;;21.70;12.23;;;10.40;90.00;;;11.68;59.11;99771.25;3082155;46;20464;-66
2024/01/01 03:29:41;;;;;;;16.93;11.73;;;10.40;90.00;;;11.65;59.19;99761.09;3083355;46;20452;-66
2024/01/01 03:32:10;;;;;;;18.17;12.23;;;10.40;89.90;;;11.69;59.04;99766.81;3082018;46;20431;-66
2024/01/01 03:34:39;;;;;;;19.60;12.57;;;10.40;89.80;;;11.75;59.03;99765.97;3082122;46;20509;-67
2024/01/01 03:37:07;;;;;;;18.23;11.20;;;10.40;89.80;;;11.73;58.88;99763.56;3081705;46;20444;-66
2024/01/01 03:39:35;;;;;;;16.00;11.13;;;10.30;89.50;;;11.72;58.64;99764.56;3082083;46;20440;-66
2024/01/01 03:42:04;;;;;;;21.57;13.50;;;10.40;89.30;;;11.76;58.75;99767.59;3081939;46;20454;-66
2024/01/01 03:44:32;;;;;;;19.30;11.90;;;10.40;89.40;;;11.81;58.42;99765.97;3081648;46;20457;-65
2024/01/01 03:47:01;;;;;;;19.70;12.83;;;10.40;89.40;;;11.76;58.41;99762.34;3081642;46;20573;-65
2024/01/01 03:49:29;;;;;;;20.30;12.30;;;10.40;89.20;;;11.76;58.37;99767.59;3081603;46;20432;-64
2024/01/01 03:51:58;;;;;;;19.53;12.43;;;10.40;89.20;;;11.75;58.61;99766.78;3081881;46;20428;-65
2024/01/01 03:54:26;;;;;;;20.23;13.10;;;10.40;89.20;;;11.72;58.45;99772.47;3081910;46;20453;-64
2024/01/01 03:56:55;;;;;;;22.13;13.00;;;10.40;89.10;;;11.66;58.66;99769.81;3081610;46;20454;-66
2024/01/01 03:59:24;;;;;;;22.07;13.90;;;10.40;89.00;;;11.64;58.62;99763.94;3081973;46;21083;-65
2024/01/01 04:01:52;;;;;;;19.83;12.27;;;10.40;88.90;;;11.61;58.58;99770.44;3081924;46;20468;-64
2024/01/01 04:04:20;;;;;;;20.20;12.57;;;10.40;88.90;;;11.64;58.58;99770.03;3081619;46;20455;-65
2024/01/01 04:06:49;;;;;;;22.63;13.27;;;10.40;89.00;;;11.63;58.53;99765.75;3081326;46;20484;-66
2024/01/01 04:09:18;;;;;;;23.47;13.20;;;10.40;89.00;;;11.63;58.66;99768.41;3081291;46;20509;-63
2024/01/01 04:11:47;;;;;;;21.80;13.63;;;10.40;88.90;;;11.62;58.69;99761.53;3081729;46;20551;-64
2024/01/01 04:14:15;;;;;;;17.80;13.00;;;10.40;89.00;;;11.60;58.59;99763.53;3081398;46;20467;-62
2024/01/01 04:16:43;;;;;;;19.37;14.10;;;10.30;88.90;;;11.63;58.73;99759.69;3081208;46;20569;-66
2024/01/01 04:19:12;;;;;;;16.87;12.27;;;10.30;89.00;;;11.63;58.43;99763.13;3081497;46;20456;-66
2024/01/01 04:21:40;;;;;;;24.63;12.93;;;10.30;88.90;;;11.61;58.83;99762.53;3081627;46;21005;-66
2024/01/01 04:24:09;;;;;;;20.80;12.87;;;10.30;88.90;;;11.63;58.67;99752.59;3081620;46;20447;-66
2024/01/01 04:26:38;;;;;;;20.53;13.50;;;10.30;88.90;;;11.65;58.52;99752.41;3081667;46;20432;-65
2024/01/01 04:29:06;;;;;;;19.13;12.00;;;10.30;88.90;;;11.59;58.35;99756.66;3081447;46;20460;-66
2024/01/01 04:31:35;;;;;;;16.83;12.40;;;10.30;88.60;;;11.61;58.24;99754.63;3081593;46;20455;-66
2024/01/01 04:34:03;;;;;;;17.87;12.33;;;10.30;88.60;;;11.63;58.06;99760.50;3081694;46;20435;-64
2024/01/01 04:36:32;;;;;;;22.80;12.03;;;10.30;88.60;;;11.55;58.13;99755.47;3081637;46;20432;-65
2024/01/01 04:39:03;;;;;;;18.03;13.07;;;10.30;88.40;;;11.59;58.25;99761.94;3081392;46;20569;-64
2024/01/01 04:41:31;;;;;;;17.50;11.53;;;10.30;88.40;;;11.64;58.05;99759.50;3081295;46;20469;-66
2024/01/01 04:44:00;;;;;;;18.23;10.93;;;10.30;88.50;;;11.64;57.90;99759.50;3081621;46;20432;-66
2024/01/01 04:46:28;;;;;;;20.57;11.63;;;10.30;88.40;;;11.63;57.89;99762.31;3081062;46;20438;-64
2024/01/01 04:48:57;;;;;;;18.27;9.17;;;10.30;88.40;;;11.55;57.68;99755.47;3080906;46;20514;-65
2024/01/01 04:51:25;;;;;;;15.90;8.93;;;10.30;88.10;;;11.57;58.08;99750.78;3081591;46;21072;-65
2024/01/01 04:53:54;;;;;;;13.47;8.23;;;10.30;88.00;;;11.57;57.79;99761.31;3081474;46;21091;-62
2024/01/01 04:56:23;;;;;;;12.83;7.27;;;10.30;87.70;;;11.67;57.72;99759.06;3081000;46;20471;-66
2024/01/01 04:58:54;;;;;;;12.17;7.93;;;10.30;87.90;;;11.75;57.67;99756.25;3080723;46;20596;-66
2024/01/01 05:01:22;;;;;;;10.80;7.47;;;10.30;88.10;;;11.80;57.62;99766.16;3081334;46;20435;-66
2024/01/01 05:03:50;;;;;;;13.90;7.40;;;10.30;88.10;;;11.83;57.45;99777.13;3081111;46;20508;-66
2024/01/01 05:06:19;;;;;;;12.63;7.23;;;10.30;88.20;;;11.77;57.57;99774.47;3080946;46;20452;-65
2024/01/01 05:08:48;;;;;;;9.73;6.77;;;10.40;88.20;;;11.72;57.79;99766.41;3080807;46;20468;-64
2024/01/01 05:11:16;;;;;;;12.27;6.93;;;10.40;89.00;;;11.68;58.25;99763.34;3081000;46;20475;-66
2024/01/01 05:13:44;;;;;;;10.57;6.00;;;10.40;88.60;;;11.70;58.49;99763.13;3081254;46;20516;-65
2024/01/01 05:16:13;;;;;;;14.30;6.13;;;10.30;88.80;;;11.62;58.94;99771.25;3080976;46;20439;-65
2024/01/01 05:18:41;;;;;;;11.30;6.13;;;10.40;89.50;;;11.51;59.17;99776.13;3080660;46;20472;-65
2024/01/01 05:21:10;;;;;;;10.30;5.50;;;10.30;89.40;;;11.48;59.43;99768.63;3081164;46;20550;-64
2024/01/01 05:23:38;;;;;;;7.40;5.37;;;10.30;89.50;;;11.43;59.59;99767.63;3081241;46;20536;-65
2024/01/01 05:26:07;;;;;;;10.33;5.67;;;10.30;89.70;;;11.40;59.79;99774.13;3081129;46;21188;-66
2024/01/01 05:28:36;;;;;;;7.80;5.13;;;10.30;90.00;;;11.36;59.98;99786.06;3080695;46;20636;-66
2024/01/01 05:31:04;;;;;;;8.80;5.70;;;10.20;90.10;;;11.30;60.57;99772.88;3081498;46;20426;-66
2024/01/01 05:33:33;;;;;;;7.20;4.97;;;10.20;90.30;;;11.27;60.83;99773.28;3083571;46;20460;-66
2024/01/01 05:36:02;;;;;;;10.17;4.43;;;10.10;90.40;;;11.17;61.28;99783.44;3083299;46;20479;-65
2024/01/01 05:38:30;;;;;;;10.63;5.57;;;10.10;90.70;;;11.18;61.56;99783.22;3082759;46;20572;-66
2024/01/01 05:40:59;;;;;;;9.60;5.10;;;10.10;90.80;;;11.24;61.38;99794.78;3083122;46;20505;-65
2024/01/01 05:43:27;;;;;;;9.83;4.80;;;10.00;90.90;;;11.20;61.93;99783.81;3083517;46;20439;-64
2024/01/01 05:45:55;;;;;;;9.77;4.67;;;10.00;91.20;;;11.23;61.99;99790.50;3083550;46;20548;-64
2024/01/01 05:48:24;;;;;;;6.83;4.20;;;10.00;91.30;;;11.21;62.38;99785.47;3082645;46;20561;-65
2024/01/01 05:51:02;;;;;;;9.97;4.90;;;9.90;92.10;;;11.16;62.63;99784.44;3083215;46;20432;-63
2024/01/01 05:53:31;;;;;;;9.80;4.50;;;9.90;92.20;;;11.06;63.36;99797.19;3083266;46;20461;-63
2024/01/01 05:55:59;;;;;;;6.63;3.90;;;9.90;92.50;;;11.01;63.90;99796.97;3083242;46;20448;-64
2024/01/01 05:58:28;;;;;;;9.93;4.23;;;9.80;92.80;;;10.92;64.57;99800.81;3082600;46;21217;-65
2024/01/01 06:00:56;;;;;;;7.83;3.90;;;9.80;93.10;;;10.86;65.19;99808.47;3082900;46;20549;-66
2024/01/01 06:03:25;;;;;;;9.97;4.53;;;9.70;93.40;;;10.86;65.01;99797.16;3083149;46;20542;-65
2024/01/01 06:05:54;;;;;;;7.23;3.63;;;9.70;93.40;;;10.83;65.48;99806.28;3083221;46;20548;-65
2024/01/01 06:08:22;;;;;;;8.50;4.63;;;9.70;93.60;;;10.85;65.37;99809.50;3082840;46;21039;-63
2024/01/01 06:10:51;;;;;;;10.20;4.73;;;9.60;93.70;;;10.78;66.19;99811.31;3083082;46;20427;-63
2024/01/01 06:13:19;;;;;;;7.87;4.00;;;9.60;94.10;;;10.73;66.29;99810.28;3083066;46;21021;-65
2024/01/01 06:15:50;;;;;;;8.10;4.30;;;9.50;94.10;;;10.62;66.98;99816.94;3083140;46;20530;-65
2024/01/01 06:18:19;;;;;;;7.33;4.40;;;9.50;94.40;;;10.56;67.79;99817.72;3082712;46;21088;-65
2024/01/01 06:20:47;;;;;;;10.33;4.63;;;9.40;94.70;;;10.46;68.43;99825.16;3082881;46;20503;-64
2024/01/01 06:23:16;;;;;;;10.00;5.13;;;9.40;95.10;;;10.41;68.75;99817.03;3083065;46;20505;-66
2024/01/01 06:25:44;;;;;;;7.23;4.30;;;9.40;95.10;;;10.36;68.87;99822.09;3082959;46;20457;-66
2024/01/01 06:28:13;;;;;;;6.83;4.20;;;9.30;95.60;;;10.35;69.03;99823.09;3082105;46;21192;-62
2024/01/01 06:30:41;;;;;;;8.37;4.10;;;9.20;95.40;;;10.27;69.88;99822.47;3082749;46;20461;-65
2024/01/01 06:33:10;;;;;;;7.77;4.63;;;9.20;95.80;;;10.23;69.63;99821.19;3083161;46;20451;-65
2024/01/01 06:35:38;;;;;;;6.53;3.93;;;9.10;95.70;;;10.22;69.98;99819.59;3082637;46;21013;-66
2024/01/01 06:38:06;;;;;;;10.20;3.80;;;9.10;96.10;;;10.19;69.96;99826.06;3082443;46;20596;-63
2024/01/01 06:40:35;;;;;;;8.67;4.43;;;9.00;96.00;;;10.13;70.40;99821.56;3082847;46;20511;-65
2024/01/01 06:43:04;;;;;;;7.43;3.60;;;9.00;96.10;;;10.07;70.65;99827.56;3080892;46;20946;-66
2024/01/01 06:45:32;;;;;;;7.87;3.93;;;9.00;96.30;;;10.06;70.47;99831.19;3082458;46;20440;-63
2024/01/01 06:48:00;;;;;;;8.03;3.50;;;8.90;96.30;;;10.03;71.05;99826.34;3082221;46;20476;-66
2024/01/01 06:50:30;;;;;;;9.40;3.90;;;8.90;96.50;;;9.99;71.15;99822.47;3082336;46;20518;-66
2024/01/01 06:52:58;;;;;;;9.40;4.10;;;8.90;96.60;;;9.95;71.36;99823.84;3082571;46;20454;-65
2024/01/01 06:55:29;;;;;;;5.43;3.37;;;8.80;96.60;;;9.97;71.36;99827.09;3082602;46;20526;-64
2024/01/01 06:57:59;;;;;;;8.80;3.73;;;8.90;96.70;;;9.99;71.12;99827.72;3082019;46;20444;-65
2024/01/01 07:00:27;;;;;;;7.23;3.33;;;8.90;96.80;;;10.00;70.95;99832.81;3082384;46;20471;-65
2024/01/01 07:02:59;;;;;;;7.67;3.70;;;8.80;96.70;;;9.99;70.92;99825.09;3082448;46;20438;-64
2024/01/01 07:05:29;;;;;;;7.03;3.57;;;8.80;96.70;;;9.97;71.16;99832.34;3082852;46;20487;-65
2024/01/01 07:07:57;;;;;;;5.87;3.23;;;8.80;96.70;;;9.96;71.24;99831.53;3081967;46;20537;-63
2024/01/01 07:10:26;;;;;;;5.80;3.30;;;8.80;96.70;;;10.02;71.06;99832.59;3082666;46;20423;-63
2024/01/01 07:12:54;;;;;;;6.33;3.97;;;8.80;96.70;;;10.02;71.32;99833.41;3082249;46;20513;-66
2024/01/01 07:15:23;;;;;;;6.10;3.80;;;8.80;96.80;;;9.99;71.52;99832.97;3082404;46;20545;-64
2024/01/01 07:17:51;;;;;;;10.33;3.90;;;8.80;96.90;;;10.00;71.66;99837.25;3081919;46;21077;-65
2024/01/01 07:20:21;;;;;;;9.10;4.00;;;8.80;96.90;;;10.05;71.28;99842.72;3082277;46;20423;-65
2024/01/01 07:22:49;;;;;;;7.03;3.23;;;8.80;96.90;;;10.02;71.32;99840.47;3082504;46;20988;-65
2024/01/01 07:25:19;;;;;;;10.17;4.03;;;8.80;96.90;;;9.97;71.57;99842.88;3082428;46;20428;-64
2024/01/01 07:27:47;;;;;;;9.60;4.40;;;8.80;96.90;;;10.02;71.24;99835.22;3082150;46;21121;-64
2024/01/01 07:30:16;;;;;;;7.87;3.30;;;8.80;96.80;;;9.97;71.48;99832.34;3082064;46;20462;-63
2024/01/01 07:32:44;;;;;;;10.47;3.40;;;8.80;96.80;;;9.96;71.32;99836.00;3082276;46;20442;-65
2024/01/01 07:35:12;;;;;;;13.43;3.87;;;8.80;96.90;;;9.94;71.40;99846.69;3082125;46;20432;-66
2024/01/01 07:37:41;;;;;;;6.83;3.67;;;8.80;96.90;;;9.96;71.24;99846.53;3081633;46;20530;-66
2024/01/01 07:40:10;;;;;;;8.90;3.23;;;8.80;96.80;;;9.99;71.14;99840.84;3082090;46;20443;-62
2024/01/01 07:42:38;;;;;;;6.73;3.03;;;8.80;96.70;;;10.02;70.96;99840.47;3082258;46;20503;-66
2024/01/01 07:45:07;;;;;;;9.10;3.77;;;8.80;96.70;;;10.04;70.56;99838.47;3082069;46;20485;-63
2024/01/01 07:47:36;;;;;;;6.30;3.30;;;8.80;96.70;;;10.06;70.50;99846.97;3081800;46;20439;-61
2024/01/01 07:50:07;;;;;;;7.37;3.50;;;8.80;96.60;;;10.13;70.21;99847.84;3081935;46;20566;-64
2024/01/01 07:52:36;;;;;;;5.10;3.20;;;8.80;96.60;;;10.13;70.15;99839.97;3082239;46;20431;-66
2024/01/01 07:55:06;;;;;;;5.73;2.73;;;8.90;96.50;;;10.11;69.90;99839.31;3081671;46;20423;-65
2024/01/01 07:57:35;;;;;;;7.40;2.80;;;8.90;96.40;;;10.08;69.98;99842.31;3081717;46;20486;-62
2024/01/01 08:00:06;;;;;;;8.37;3.17;;;8.90;96.30;;;10.09;69.78;99842.16;3081337;46;21126;-67
2024/01/01 08:02:34;;;;;;;6.77;3.10;;;8.90;96.30;;;10.12;70.01;99846.25;3082140;46;20507;-64
2024/01/01 08:05:03;;;;;;;9.70;3.30;;;8.90;96.30;;;10.21;69.74;99850.34;3081995;46;20483;-66
2024/01/01 08:07:31;;;;;;;7.73;2.90;;;8.90;96.30;;;10.21;69.46;99852.97;3081427;46;20508;-66
2024/01/01 08:10:00;;;;;;;5.70;2.53;;;8.90;96.20;;;10.20;69.44;99859.22;3081831;46;20456;-65
2024/01/01 08:12:28;;;;;;;7.07;2.60;;;9.00;96.20;;;10.18;69.43;99855.97;3081634;46;20512;-65
2024/01/01 08:14:57;;;;;;;5.23;2.83;;;8.90;96.10;;;10.24;69.25;99855.22;3081582;46;20533;-64
2024/01/01 08:17:25;;;;;;;11.13;2.80;;;9.00;96.10;;;10.32;69.22;99856.88;3080969;46;21061;-65
2024/01/01 08:19:54;;;;;;;8.60;3.13;;;9.00;96.10;;;10.36;68.93;99858.91;3081896;46;20427;-65
2024/01/01 08:22:22;;;;;;;11.13;3.30;;;9.00;96.00;;;10.39;68.74;99858.50;3081543;46;20438;-65
2024/01/01 08:24:51;;;;;;;7.73;3.27;;;9.00;96.00;;;10.35;68.84;99859.91;3081581;46;20431;-65
2024/01/01 08:27:19;;;;;;;7.03;2.80;;;9.00;95.90;;;10.36;68.75;99874.69;3081190;46;20569;-66
2024/01/01 08:29:47;;;;;;;5.40;2.60;;;9.00;95.90;;;10.34;68.91;99874.06;3081643;46;20462;-65
2024/01/01 08:32:16;;;;;;;8.53;2.90;;;9.00;95.90;;;10.34;69.02;99871.44;3081468;46;20558;-66
2024/01/01 08:34:44;;;;;;;8.67;2.77;;;9.10;96.00;;;10.38;69.11;99869.25;3081478;46;21118;-65
2024/01/01 08:37:13;;;;;;;5.93;3.13;;;9.10;96.10;;;10.39;69.08;99873.50;3081334;46;21009;-66
2024/01/01 08:39:41;;;;;;;6.93;2.80;;;9.10;96.00;;;10.41;69.16;99882.00;3081509;46;21014;-64
2024/01/01 08:42:09;;;;;;;9.60;2.87;;;9.10;96.00;;;10.42;68.93;99879.16;3081335;46;20507;-62
2024/01/01 08:44:39;;;;;;;10.10;3.30;;;9.10;95.90;;;10.47;68.72;99876.78;3081320;46;20446;-66
2024/01/01 08:47:08;;;;;;;7.03;2.83;;;9.10;96.00;;;10.50;68.83;99880.84;3081148;46;20452;-65
2024/01/01 08:49:36;;;;;;;5.93;2.47;;;9.10;96.00;;;10.50;68.62;99884.28;3081226;46;20431;-66
2024/01/01 08:52:05;;;;;;;10.93;3.53;;;9.20;96.00;;;10.47;68.48;99889.94;3081252;46;20427;-64
2024/01/01 08:54:34;;;;;;;7.13;2.60;;;9.20;95.80;;;10.53;68.51;99885.72;3081550;46;21104;-64
2024/01/01 08:57:03;;;;;;;8.23;2.80;;;9.20;96.10;;;10.57;68.11;99890.38;3081046;46;20571;-66
2024/01/01 08:59:31;;;;;;;5.93;2.57;;;9.20;95.70;;;10.57;67.85;99877.22;3081465;46;20431;-64
2024/01/01 09:02:00;;;;;;;10.40;3.13;;;9.20;95.60;;;10.62;67.55;99885.34;3081322;46;20432;-66
2024/01/01 09:04:28;;;;;;;8.30;3.10;;;9.20;95.50;;;10.70;67.40;99884.34;3081427;46;20453;-66
2024/01/01 09:06:57;;;;;;;7.03;2.30;;;9.30;95.50;;;10.79;67.21;99891.88;3080244;46;20513;-67
2024/01/01 09:09:25;;;;;;;12.43;2.93;;;9.30;95.50;;;10.83;67.18;99897.59;3081321;46;20488;-65
2024/01/01 09:11:54;;;;;;;8.30;2.60;;;9.30;95.40;;;10.81;67.21;99897.78;3081029;46;20553;-66
2024/01/01 09:14:23;;;;;;;9.77;2.63;;;9.40;95.40;;;10.78;67.07;99898.16;3081024;46;20429;-66
2024/01/01 09:16:51;;;;;;;8.33;2.53;;;9.40;95.30;;;10.74;66.91;99896.91;3080564;46;20455;-65
2024/01/01 09:19:20;;;;;;;7.73;2.67;;;9.40;95.40;;;10.79;66.99;99912.94;3081503;46;20493;-65
2024/01/01 09:21:48;;;;;;;13.07;2.70;;;9.50;95.20;;;10.79;66.78;99905.03;3081232;46;20986;-64
2024/01/01 09:24:17;;;;;;;8.80;2.53;;;9.50;95.00;;;10.77;66.18;99914.97;3081306;46;20548;-65
2024/01/01 09:26:46;;;;;;;12.47;2.83;;;9.50;94.70;;;10.84;66.29;99914.97;3081174;46;21004;-64
2024/01/01 09:29:15;;;;;;;6.73;2.23;;;9.50;94.60;;;10.93;66.08;99918.28;3080765;46;20423;-62
2024/01/01 09:31:43;;;;;;;6.77;2.23;;;9.50;94.70;;;10.97;65.73;99919.50;3080817;46;21099;-65
2024/01/01 09:34:11;;;;;;;8.77;2.30;;;9.50;94.50;;;10.99;65.46;99928.00;3081018;46;20428;-66
2024/01/01 09:36:41;;;;;;;7.47;2.57;;;9.60;94.40;;;11.05;65.51;99921.97;3080542;46;21013;-65
2024/01/01 09:39:26;;;;;;;8.27;2.37;;;9.60;94.40;;;11.17;65.37;99930.91;3080977;46;20430;-66
2024/01/01 09:41:54;;;;;;;6.07;2.53;;;9.70;94.40;;;11.21;64.79;99934.78;3080390;46;20522;-65
2024/01/01 09:44:23;;;;;;;8.90;2.83;;;9.70;94.30;;;11.28;64.83;99939.06;3080916;46;21000;-65
2024/01/01 09:46:52;;;;;;;7.27;2.40;;;9.70;94.30;;;11.30;64.50;99936.22;3080458;46;20556;-66
2024/01/01 09:49:21;;;;;;;8.20;2.70;;;9.70;94.20;;;11.32;64.45;99937.63;3080408;46;20427;-66
2024/01/01 09:51:51;;;;;;;8.67;2.37;;;9.70;94.10;;;11.35;64.54;99939.06;3079944;46;20427;-64
2024/01/01 09:54:19;;;;;;;7.33;2.47;;;9.80;94.20;;;11.36;64.49;99944.13;3080780;46;20531;-66
2024/01/01 09:56:48;;;;;;;6.80;2.63;;;9.80;94.10;;;11.40;64.46;99945.38;3080580;46;20991;-66
2024/01/01 09:59:39;;;;;;;7.67;2.23;;;9.80;94.10;;;11.33;64.34;99941.91;3080657;46;20498;-66
2024/01/01 10:02:09;;;;;;;4.57;2.20;;;9.80;94.00;;;11.41;64.37;99943.56;3080600;46;20431;-66
2024/01/01 10:04:37;;;;;;;7.27;2.53;;;9.80;94.00;;;11.43;64.17;99949.44;3080509;46;20998;-66
2024/01/01 10:07:06;;;;;;;7.23;2.20;;;9.90;94.00;;;11.48;63.98;99954.91;3080262;46;20452;-65
2024/01/01 10:09:48;;;;;;;8.87;2.50;;;9.90;94.00;;;11.50;63.90;99950.25;3080535;46;20497;-62
2024/01/01 10:12:22;;;;;;;6.27;2.10;;;9.90;93.90;;;11.54;63.56;99948.84;3080467;46;20998;-66
2024/01/01 10:14:51;;;;;;;6.47;2.47;;;9.90;93.80;;;11.57;63.56;99953.72;3080683;46;21118;-66
2024/01/01 10:17:19;;;;;;;5.70;2.07;;;9.90;93.70;;;11.61;63.31;99959.38;3080543;46;20505;-66
2024/01/01 10:19:59;;;;;;;5.63;2.07;;;9.90;93.60;;;11.62;63.05;99959.19;3082800;46;21036;-65
2024/01/01 10:22:32;;;;;;;7.07;2.43;;;9.90;93.50;;;11.63;62.74;99960.81;3082754;46;20456;-66
2024/01/01 10:25:14;;;;;;;5.30;2.40;;;10.00;92.80;;;11.59;62.32;99959.59;3082763;46;20464;-66
2024/01/01 10:27:44;;;;;;;5.80;2.40;;;10.00;92.60;;;11.66;62.49;99952.50;3082477;46;20948;-65